Time,TemperatureF,DewpointF,PressureIn,WindDirection,WindDirectionDegrees,WindSpeedMPH,WindSpeedGustMPH,Humidity,HourlyPrecipIn,Conditions,Clouds,dailyrainin,SoftwareType,DateUTC
2013-03-11 00:03:00,36.0,36.0,29.59,WSW,244,0.0,1.0,99,0.01,,,0.90,,2013-03-11 05:03:00,
2013-03-11 00:12:00,36.0,36.0,29.59,WSW,244,0.0,1.0,99,0.01,,,0.90,,2013-03-11 05:12:00,
2013-03-11 00:22:00,36.0,36.0,29.60,WSW,242,0.0,1.0,99,0.01,,,0.90,,2013-03-11 05:22:00,
2013-03-11 00:32:00,36.0,36.0,29.60,WSW,242,0.0,0.0,99,0.01,,,0.90,,2013-03-11 05:32:00,
2013-03-11 00:42:00,36.0,36.0,29.60,WSW,242,0.0,0.0,99,0.01,,,0.90,,2013-03-11 05:42:00,
2013-03-11 00:52:00,36.0,36.0,29.59,WSW,245,0.0,0.0,99,0.00,,,0.90,,2013-03-11 05:52:00,
2013-03-11 01:02:00,36.0,36.0,29.59,WSW,245,0.0,0.0,99,0.01,,,0.91,,2013-03-11 06:02:00,
2013-03-11 01:12:00,36.0,36.0,29.59,WSW,245,0.0,0.0,99,0.01,,,0.91,,2013-03-11 06:12:00,
2013-03-11 01:22:00,36.0,36.0,29.58,WSW,245,0.0,0.0,99,0.01,,,0.90,,2013-03-11 06:22:00,
2013-03-11 01:32:00,36.0,36.0,29.59,WSW,244,0.0,0.0,99,0.01,,,0.90,,2013-03-11 06:32:00,
2013-03-11 01:42:00,36.0,36.0,29.59,WSW,244,0.0,0.0,99,0.01,,,0.90,,2013-03-11 06:42:00,
2013-03-11 01:53:00,36.0,36.0,29.59,WSW,242,0.0,0.0,99,0.01,,,0.90,,2013-03-11 06:53:00,
2013-03-11 02:02:00,36.0,36.0,29.59,WNW,283,0.0,1.0,99,0.00,,,0.90,,2013-03-11 07:02:00,
2013-03-11 02:12:00,36.0,36.0,29.59,WNW,283,0.0,0.0,99,0.00,,,0.86,,2013-03-11 07:12:00,
2013-03-11 02:22:00,36.0,36.0,29.59,WNW,283,0.0,0.0,99,0.00,,,0.86,,2013-03-11 07:22:00,
2013-03-11 02:32:00,37.0,37.0,29.59,SW,222,0.0,2.0,99,0.01,,,0.87,,2013-03-11 07:32:00,
2013-03-11 02:42:00,37.0,37.0,29.59,SW,222,0.0,2.0,99,0.01,,,0.87,,2013-03-11 07:42:00,
2013-03-11 02:52:00,39.0,39.0,29.58,SSW,203,1.0,3.0,99,0.01,,,0.87,,2013-03-11 07:52:00,
2013-03-11 03:02:00,39.0,39.0,29.57,SSW,211,0.0,2.0,99,0.01,,,0.87,,2013-03-11 08:02:00,
2013-03-11 03:12:00,39.0,39.0,29.57,SSW,211,0.0,2.0,99,0.01,,,0.87,,2013-03-11 08:12:00,
2013-03-11 03:22:00,39.0,39.0,29.57,WSW,244,1.0,3.0,99,0.01,,,0.86,,2013-03-11 08:22:00,
2013-03-11 03:32:00,39.0,39.0,29.56,SW,218,1.0,3.0,99,0.00,,,0.86,,2013-03-11 08:32:00,
2013-03-11 03:42:00,39.0,39.0,29.56,SW,218,1.0,3.0,99,0.00,,,0.86,,2013-03-11 08:42:00,
2013-03-11 03:52:00,39.0,39.0,29.56,SW,222,2.0,4.0,99,0.00,,,0.86,,2013-03-11 08:52:00,
2013-03-11 04:02:00,39.0,39.0,29.55,WSW,250,0.0,4.0,99,0.00,,,0.86,,2013-03-11 09:02:00,
2013-03-11 04:12:00,39.0,39.0,29.55,WSW,250,0.0,4.0,99,0.00,,,0.86,,2013-03-11 09:12:00,
2013-03-11 04:22:00,39.0,39.0,29.55,WSW,250,4.0,6.0,99,0.00,,,0.82,,2013-03-11 09:22:00,
2013-03-11 04:32:00,39.0,39.0,29.55,SW,232,2.0,6.0,99,0.00,,,0.82,,2013-03-11 09:32:00,
2013-03-11 04:42:00,39.0,39.0,29.55,SW,232,2.0,6.0,99,0.00,,,0.82,,2013-03-11 09:42:00,
2013-03-11 04:52:00,39.0,39.0,29.56,WSW,246,3.0,8.0,99,0.00,,,0.82,,2013-03-11 09:52:00,
2013-03-11 05:02:00,38.0,38.0,29.55,WSW,246,5.0,8.0,99,0.00,,,0.82,,2013-03-11 10:02:00,
2013-03-11 05:12:00,38.0,38.0,29.55,WSW,246,5.0,8.0,99,0.00,,,0.82,,2013-03-11 10:12:00,
2013-03-11 05:22:00,38.0,38.0,29.55,WSW,244,3.0,8.0,99,0.00,,,0.73,,2013-03-11 10:22:00,
2013-03-11 05:32:00,38.0,38.0,29.55,West,271,3.0,7.0,99,0.00,,,0.73,,2013-03-11 10:32:00,
2013-03-11 05:42:00,38.0,38.0,29.55,West,271,3.0,7.0,99,0.00,,,0.73,,2013-03-11 10:42:00,
2013-03-11 05:52:00,37.0,37.0,29.54,SW,231,4.0,8.0,99,0.00,,,0.73,,2013-03-11 10:52:00,
2013-03-11 06:02:00,37.0,37.0,29.54,WSW,248,2.0,5.0,99,0.00,,,0.73,,2013-03-11 11:02:00,
2013-03-11 06:12:00,37.0,37.0,29.54,WSW,248,2.0,5.0,99,0.00,,,0.73,,2013-03-11 11:12:00,
2013-03-11 06:22:00,36.0,36.0,29.54,WSW,246,1.0,4.0,99,0.00,,,0.73,,2013-03-11 11:22:00,
2013-03-11 06:32:00,36.0,36.0,29.54,West,263,2.0,4.0,99,0.00,,,0.73,,2013-03-11 11:32:00,
2013-03-11 06:42:00,36.0,36.0,29.54,West,263,2.0,4.0,99,0.00,,,0.73,,2013-03-11 11:42:00,
2013-03-11 06:53:00,36.0,36.0,29.56,WNW,302,4.0,6.0,99,0.00,,,0.73,,2013-03-11 11:53:00,
2013-03-11 07:02:00,35.0,35.0,29.57,WNW,287,2.0,5.0,99,0.00,,,0.73,,2013-03-11 12:02:00,
2013-03-11 07:12:00,35.0,35.0,29.57,WNW,287,2.0,5.0,99,0.00,,,0.73,,2013-03-11 12:12:00,
2013-03-11 07:22:00,35.0,35.0,29.59,WSW,239,1.0,4.0,99,0.00,,,0.70,,2013-03-11 12:22:00,
2013-03-11 07:32:00,35.0,35.0,29.59,NW,307,1.0,3.0,99,0.00,,,0.70,,2013-03-11 12:32:00,
2013-03-11 07:42:00,35.0,35.0,29.59,NW,307,1.0,3.0,99,0.00,,,0.70,,2013-03-11 12:42:00,
2013-03-11 07:53:00,34.0,34.0,29.59,West,263,2.0,5.0,99,0.00,,,0.70,,2013-03-11 12:53:00,
2013-03-11 08:02:00,34.0,34.0,29.59,WNW,295,2.0,5.0,99,0.00,,,0.70,,2013-03-11 13:02:00,
2013-03-11 08:12:00,34.0,34.0,29.59,WNW,295,2.0,5.0,99,0.00,,,0.70,,2013-03-11 13:12:00,
2013-03-11 08:22:00,34.0,34.0,29.58,NW,319,1.0,5.0,99,0.00,,,0.64,,2013-03-11 13:22:00,
2013-03-11 08:32:00,34.0,34.0,29.57,NW,315,1.0,5.0,99,0.00,,,0.64,,2013-03-11 13:32:00,
2013-03-11 08:42:00,34.0,34.0,29.57,NW,315,1.0,5.0,99,0.00,,,0.64,,2013-03-11 13:42:00,
2013-03-11 08:52:00,34.0,34.0,29.58,NW,305,1.0,4.0,99,0.00,,,0.64,,2013-03-11 13:52:00,
2013-03-11 09:02:00,34.0,34.0,29.59,WSW,248,0.0,2.0,99,0.00,,,0.64,,2013-03-11 14:02:00,
2013-03-11 09:12:00,34.0,34.0,29.59,WSW,248,0.0,2.0,99,0.00,,,0.64,,2013-03-11 14:12:00,
2013-03-11 09:22:00,34.0,34.0,29.56,NNW,333,1.0,3.0,99,0.00,,,0.61,,2013-03-11 14:22:00,
2013-03-11 09:32:00,34.0,34.0,29.57,West,273,0.0,3.0,99,0.00,,,0.61,,2013-03-11 14:32:00,
2013-03-11 09:42:00,34.0,34.0,29.57,West,273,0.0,3.0,99,0.00,,,0.61,,2013-03-11 14:42:00,
2013-03-11 09:53:00,34.0,34.0,29.56,WNW,297,0.0,1.0,99,0.00,,,0.61,,2013-03-11 14:53:00,
2013-03-11 10:02:00,34.0,34.0,29.56,WNW,297,0.0,1.0,99,0.00,,,0.61,,2013-03-11 15:02:00,
2013-03-11 10:12:00,34.0,34.0,29.56,WNW,297,0.0,1.0,99,0.00,,,0.61,,2013-03-11 15:12:00,
2013-03-11 10:22:00,34.0,34.0,29.54,NNW,340,2.0,4.0,99,0.00,,,0.56,,2013-03-11 15:22:00,
2013-03-11 10:32:00,34.0,34.0,29.54,West,263,1.0,6.0,99,0.00,,,0.56,,2013-03-11 15:32:00,
2013-03-11 10:42:00,34.0,34.0,29.54,West,263,1.0,6.0,99,0.00,,,0.56,,2013-03-11 15:42:00,
2013-03-11 10:53:00,34.0,34.0,29.54,NW,307,1.0,3.0,99,0.00,,,0.56,,2013-03-11 15:53:00,
2013-03-11 11:02:00,34.0,34.0,29.54,WSW,245,1.0,2.0,99,0.00,,,0.56,,2013-03-11 16:02:00,
2013-03-11 11:12:00,34.0,34.0,29.54,WSW,245,1.0,2.0,99,0.00,,,0.56,,2013-03-11 16:12:00,
2013-03-11 11:22:00,34.0,34.0,29.53,WNW,290,0.0,3.0,99,0.00,,,0.56,,2013-03-11 16:22:00,
2013-03-11 11:32:00,34.0,34.0,29.53,WNW,294,1.0,3.0,99,0.00,,,0.56,,2013-03-11 16:32:00,
2013-03-11 11:42:00,34.0,34.0,29.53,WNW,294,1.0,3.0,99,0.00,,,0.56,,2013-03-11 16:42:00,
2013-03-11 11:52:00,35.0,34.0,29.52,NW,319,2.0,5.0,98,0.00,,,0.56,,2013-03-11 16:52:00,
2013-03-11 12:02:00,35.0,34.0,29.52,WNW,284,1.0,3.0,98,0.00,,,0.56,,2013-03-11 17:02:00,
2013-03-11 12:14:00,35.0,34.0,29.52,WNW,284,1.0,3.0,98,0.00,,,0.56,,2013-03-11 17:14:00,
2013-03-11 12:25:00,35.0,34.0,29.52,WNW,295,3.0,5.0,98,0.00,,,0.55,,2013-03-11 17:25:00,
2013-03-11 12:34:00,35.0,34.0,29.52,NW,318,4.0,5.0,98,0.00,,,0.55,,2013-03-11 17:34:00,
2013-03-11 12:42:00,35.0,34.0,29.52,NW,318,4.0,5.0,98,0.00,,,0.55,,2013-03-11 17:42:00,
2013-03-11 12:53:00,35.0,34.0,29.52,WNW,290,2.0,5.0,97,0.00,,,0.55,,2013-03-11 17:53:00,
2013-03-11 13:02:00,35.0,34.0,29.52,WNW,292,1.0,3.0,97,0.00,,,0.55,,2013-03-11 18:02:00,
2013-03-11 13:12:00,35.0,34.0,29.52,WNW,292,1.0,3.0,97,0.00,,,0.55,,2013-03-11 18:12:00,
2013-03-11 13:22:00,35.0,34.0,29.52,WSW,253,1.0,4.0,97,0.01,,,0.56,,2013-03-11 18:22:00,
2013-03-11 13:32:00,35.0,34.0,29.52,WNW,302,2.0,3.0,97,0.01,,,0.56,,2013-03-11 18:32:00,
2013-03-11 13:42:00,35.0,34.0,29.52,WNW,302,2.0,3.0,97,0.01,,,0.56,,2013-03-11 18:42:00,
2013-03-11 13:53:00,35.0,34.0,29.51,WNW,300,1.0,3.0,97,0.01,,,0.56,,2013-03-11 18:53:00,
2013-03-11 14:02:00,35.0,34.0,29.51,WSW,245,2.0,5.0,97,0.01,,,0.56,,2013-03-11 19:02:00,
2013-03-11 14:12:00,35.0,34.0,29.51,WSW,245,2.0,5.0,97,0.01,,,0.56,,2013-03-11 19:12:00,
2013-03-11 14:22:00,34.0,33.0,29.50,WNW,284,2.0,4.0,96,0.00,,,0.52,,2013-03-11 19:22:00,
2013-03-11 14:32:00,34.0,33.0,29.49,WNW,283,3.0,7.0,96,0.00,,,0.52,,2013-03-11 19:32:00,
2013-03-11 14:42:00,34.0,33.0,29.49,WNW,283,3.0,7.0,96,0.00,,,0.52,,2013-03-11 19:42:00,
2013-03-11 14:53:00,34.0,33.0,29.49,WNW,297,2.0,6.0,96,0.00,,,0.52,,2013-03-11 19:53:00,
2013-03-11 15:02:00,34.0,33.0,29.49,WNW,286,3.0,7.0,96,0.00,,,0.52,,2013-03-11 20:02:00,
2013-03-11 15:12:00,34.0,33.0,29.49,WNW,286,3.0,7.0,96,0.00,,,0.52,,2013-03-11 20:12:00,
2013-03-11 15:22:00,33.0,32.0,29.49,NW,312,3.0,8.0,97,0.00,,,0.45,,2013-03-11 20:22:00,
2013-03-11 15:32:00,33.0,32.0,29.49,WNW,297,3.0,8.0,97,0.00,,,0.45,,2013-03-11 20:32:00,
2013-03-11 15:43:00,33.0,32.0,29.49,WNW,297,3.0,8.0,97,0.00,,,0.45,,2013-03-11 20:43:00,
2013-03-11 15:53:00,33.0,32.0,29.49,WNW,298,3.0,5.0,97,0.00,,,0.45,,2013-03-11 20:53:00,
2013-03-11 16:02:00,33.0,32.0,29.49,West,277,2.0,6.0,97,0.00,,,0.45,,2013-03-11 21:02:00,
2013-03-11 16:12:00,33.0,32.0,29.49,West,277,2.0,6.0,97,0.00,,,0.45,,2013-03-11 21:12:00,
2013-03-11 16:22:00,33.0,32.0,29.50,WNW,284,2.0,6.0,97,0.00,,,0.44,,2013-03-11 21:22:00,
2013-03-11 16:32:00,33.0,32.0,29.50,WNW,283,4.0,10.0,97,0.00,,,0.44,,2013-03-11 21:32:00,
2013-03-11 16:43:00,33.0,32.0,29.50,WNW,283,4.0,10.0,97,0.00,,,0.44,,2013-03-11 21:43:00,
2013-03-11 16:53:00,33.0,32.0,29.52,NW,304,2.0,6.0,97,0.00,,,0.44,,2013-03-11 21:53:00,
2013-03-11 17:02:00,33.0,32.0,29.52,NW,304,2.0,6.0,97,0.00,,,0.44,,2013-03-11 22:02:00,
2013-03-11 17:12:00,33.0,32.0,29.52,NW,304,2.0,6.0,97,0.00,,,0.44,,2013-03-11 22:12:00,
2013-03-11 17:22:00,33.0,32.0,29.52,West,276,2.0,6.0,97,0.01,,,0.36,,2013-03-11 22:22:00,
2013-03-11 17:32:00,33.0,32.0,29.52,West,276,2.0,6.0,97,0.01,,,0.36,,2013-03-11 22:32:00,
2013-03-11 17:43:00,33.0,32.0,29.52,West,276,2.0,6.0,97,0.01,,,0.36,,2013-03-11 22:43:00,
2013-03-11 17:53:00,33.0,32.0,29.52,West,276,2.0,6.0,97,0.01,,,0.36,,2013-03-11 22:53:00,
2013-03-11 18:03:00,33.0,32.0,29.55,WNW,283,2.0,7.0,97,0.01,,,0.36,,2013-03-11 23:03:00,
2013-03-11 18:12:00,33.0,32.0,29.55,WNW,283,2.0,7.0,97,0.01,,,0.36,,2013-03-11 23:12:00,
2013-03-11 18:22:00,33.0,32.0,29.56,WNW,283,2.0,5.0,97,0.00,,,0.22,,2013-03-11 23:22:00,
2013-03-11 18:32:00,33.0,32.0,29.56,West,267,2.0,5.0,97,0.00,,,0.22,,2013-03-11 23:32:00,
2013-03-11 18:43:00,33.0,32.0,29.56,West,267,2.0,5.0,97,0.00,,,0.22,,2013-03-11 23:43:00,
2013-03-11 18:53:00,33.0,32.0,29.57,WNW,301,3.0,6.0,97,0.00,,,0.22,,2013-03-11 23:53:00,
2013-03-11 19:02:00,33.0,32.0,29.57,WNW,295,3.0,6.0,97,0.00,,,0.22,,2013-03-12 00:02:00,
2013-03-11 19:12:00,33.0,32.0,29.57,WNW,295,3.0,6.0,97,0.00,,,0.22,,2013-03-12 00:12:00,
2013-03-11 19:22:00,33.0,32.0,29.59,WNW,292,2.0,5.0,97,0.00,,,0.16,,2013-03-12 00:22:00,
2013-03-11 19:33:00,32.0,31.0,29.59,WNW,284,2.0,4.0,97,0.01,,,0.17,,2013-03-12 00:33:00,
2013-03-11 19:42:00,32.0,31.0,29.59,WNW,284,2.0,4.0,97,0.01,,,0.17,,2013-03-12 00:42:00,
2013-03-11 19:53:00,32.0,31.0,29.60,West,276,3.0,7.0,97,0.01,,,0.17,,2013-03-12 00:53:00,
2013-03-11 20:02:00,32.0,31.0,29.60,West,280,3.0,11.0,97,0.01,,,0.17,,2013-03-12 01:02:00,
2013-03-11 20:12:00,32.0,31.0,29.60,West,280,3.0,11.0,97,0.01,,,0.17,,2013-03-12 01:12:00,
2013-03-11 20:22:00,32.0,31.0,29.62,West,266,3.0,6.0,96,0.01,,,0.12,,2013-03-12 01:22:00,
2013-03-11 20:32:00,32.0,31.0,29.62,WNW,301,3.0,7.0,96,0.00,,,0.12,,2013-03-12 01:32:00,
2013-03-11 20:42:00,32.0,31.0,29.62,WNW,301,3.0,7.0,96,0.00,,,0.12,,2013-03-12 01:42:00,
2013-03-11 20:52:00,32.0,31.0,29.63,NW,309,3.0,9.0,97,0.00,,,0.12,,2013-03-12 01:52:00,
2013-03-11 21:02:00,32.0,31.0,29.63,WNW,283,3.0,10.0,97,0.00,,,0.12,,2013-03-12 02:02:00,
2013-03-11 21:12:00,32.0,31.0,29.63,WNW,283,3.0,10.0,97,0.00,,,0.12,,2013-03-12 02:12:00,
2013-03-11 21:22:00,31.0,30.0,29.63,WNW,283,3.0,12.0,96,0.00,,,0.09,,2013-03-12 02:22:00,
2013-03-11 21:32:00,31.0,30.0,29.64,WNW,283,3.0,12.0,96,0.00,,,0.09,,2013-03-12 02:32:00,
2013-03-11 21:42:00,31.0,30.0,29.64,WNW,283,3.0,12.0,96,0.00,,,0.09,,2013-03-12 02:42:00,
2013-03-11 21:52:00,31.0,29.0,29.65,WNW,300,6.0,12.0,94,0.00,,,0.09,,2013-03-12 02:52:00,
2013-03-11 22:02:00,31.0,29.0,29.65,WNW,295,2.0,16.0,94,0.00,,,0.09,,2013-03-12 03:02:00,
2013-03-11 22:12:00,31.0,29.0,29.65,WNW,295,2.0,16.0,94,0.00,,,0.09,,2013-03-12 03:12:00,
2013-03-11 22:22:00,31.0,29.0,29.66,WNW,294,3.0,12.0,94,0.00,,,0.06,,2013-03-12 03:22:00,
2013-03-11 22:32:00,31.0,29.0,29.66,WNW,291,3.0,9.0,93,0.00,,,0.06,,2013-03-12 03:32:00,
2013-03-11 22:42:00,31.0,29.0,29.66,WNW,291,3.0,9.0,93,0.00,,,0.06,,2013-03-12 03:42:00,
2013-03-11 22:53:00,30.0,28.0,29.67,WNW,290,3.0,10.0,92,0.00,,,0.06,,2013-03-12 03:53:00,
2013-03-11 23:02:00,30.0,28.0,29.67,WNW,292,3.0,9.0,92,0.00,,,0.06,,2013-03-12 04:02:00,
2013-03-11 23:12:00,30.0,28.0,29.67,WNW,292,3.0,9.0,92,0.00,,,0.06,,2013-03-12 04:12:00,
2013-03-11 23:22:00,30.0,28.0,29.68,West,266,4.0,8.0,91,0.00,,,0.06,,2013-03-12 04:22:00,
2013-03-11 23:32:00,30.0,27.0,29.68,NNE,15,4.0,8.0,90,0.00,,,0.06,,2013-03-12 04:32:00,
2013-03-11 23:42:00,30.0,27.0,29.68,NNE,15,4.0,8.0,90,0.00,,,0.06,,2013-03-12 04:42:00,
2013-03-11 23:52:00,30.0,28.0,29.69,West,267,3.0,9.0,91,0.00,,,0.06,,2013-03-12 04:52:00,